createdAt,value
2023-04-27T00:00:13.495Z,13.57
2023-04-27T00:02:43.283Z,13.93
2023-04-27T00:05:13.419Z,14.07
2023-04-27T00:07:42.144Z,14.17
2023-04-27T00:10:11.315Z,13.77
2023-04-27T00:12:39.786Z,14.97
2023-04-27T00:15:09.711Z,12.57
2023-04-27T00:17:38.451Z,13.63
2023-04-27T00:20:11.996Z,14.77
2023-04-27T00:22:40.289Z,14.13
2023-04-27T00:25:09.144Z,14.67
2023-04-27T00:27:37.415Z,15.47
2023-04-27T00:30:06.751Z,12.77
2023-04-27T00:32:35.164Z,12.00
2023-04-27T00:35:03.419Z,14.43
2023-04-27T00:37:33.090Z,15.20
2023-04-27T00:40:01.368Z,13.33
2023-04-27T00:42:30.097Z,12.30
2023-04-27T00:44:59.118Z,15.07
2023-04-27T00:47:27.704Z,13.47
2023-04-27T00:49:56.056Z,12.67
2023-04-27T00:52:27.373Z,12.87
2023-04-27T00:54:58.983Z,17.13
2023-04-27T00:57:27.328Z,14.27
2023-04-27T00:59:55.695Z,14.70
2023-04-27T01:02:24.235Z,13.90
2023-04-27T01:04:53.494Z,13.57
2023-04-27T01:07:26.892Z,12.70
2023-04-27T01:09:56.734Z,15.63
2023-04-27T01:12:25.208Z,13.37
2023-04-27T01:14:53.520Z,14.50
2023-04-27T01:17:22.063Z,11.63
2023-04-27T01:19:51.552Z,13.47
2023-04-27T01:22:19.837Z,14.80
2023-04-27T01:24:52.863Z,14.17
2023-04-27T01:27:21.157Z,17.33
2023-04-27T01:29:49.722Z,13.43
2023-04-27T01:32:18.075Z,16.37
2023-04-27T01:34:46.415Z,12.73
2023-04-27T01:37:15.851Z,13.67
2023-04-27T01:39:44.766Z,13.33
2023-04-27T01:42:14.396Z,18.03
2023-04-27T01:44:42.693Z,17.63
2023-04-27T01:47:11.121Z,13.53
2023-04-27T01:49:39.476Z,15.43
2023-04-27T01:52:07.949Z,17.43
2023-04-27T01:54:36.355Z,15.53
2023-04-27T01:57:04.809Z,18.43
2023-04-27T01:59:36.099Z,17.03
2023-04-27T02:02:05.509Z,14.17
2023-04-27T02:04:34.074Z,12.93
2023-04-27T02:07:02.472Z,19.23
2023-04-27T02:09:30.753Z,13.37
2023-04-27T02:11:59.111Z,16.13
2023-04-27T02:14:27.513Z,18.07
2023-04-27T02:16:57.175Z,19.50
2023-04-27T02:19:25.431Z,17.57
2023-04-27T02:21:53.806Z,19.37
2023-04-27T02:24:22.063Z,17.87
2023-04-27T02:26:50.567Z,17.37
2023-04-27T02:29:19.992Z,16.20
2023-04-27T02:31:48.693Z,15.67
2023-04-27T02:34:18.095Z,15.80
2023-04-27T02:36:46.128Z,17.13
2023-04-27T02:39:14.389Z,16.50
2023-04-27T02:41:42.620Z,21.17
2023-04-27T02:44:10.713Z,17.27
2023-04-27T02:46:38.840Z,15.40
2023-04-27T02:49:08.112Z,17.57
2023-04-27T02:51:37.515Z,17.50
2023-04-27T02:54:05.884Z,16.70
2023-04-27T02:56:33.910Z,18.80
2023-04-27T02:59:02.083Z,18.67
2023-04-27T03:01:30.238Z,16.67
2023-04-27T03:03:58.483Z,19.80
2023-04-27T03:06:27.711Z,18.23
2023-04-27T03:08:57.176Z,15.53
2023-04-27T03:11:25.253Z,17.40
2023-04-27T03:13:54.044Z,18.30
2023-04-27T03:16:22.110Z,16.97
2023-04-27T03:18:50.173Z,16.07
2023-04-27T03:21:18.230Z,21.10
2023-04-27T03:23:46.330Z,16.00
2023-04-27T03:26:16.069Z,17.23
2023-04-27T03:28:44.151Z,17.10
2023-04-27T03:31:13.301Z,17.53
2023-04-27T03:33:42.529Z,16.77
2023-04-27T03:36:11.738Z,19.23
2023-04-27T03:38:42.917Z,14.87
2023-04-27T03:41:11.711Z,19.30
2023-04-27T03:43:41.153Z,17.17
2023-04-27T03:46:09.860Z,18.33
2023-04-27T03:48:38.697Z,16.57
2023-04-27T03:51:07.350Z,20.23
2023-04-27T03:53:35.789Z,17.13
2023-04-27T03:56:04.346Z,19.77
2023-04-27T03:58:32.503Z,16.67
2023-04-27T04:01:11.827Z,18.07
2023-04-27T04:03:40.335Z,18.60
2023-04-27T04:06:09.988Z,18.73
2023-04-27T04:08:38.255Z,21.37
2023-04-27T04:11:06.480Z,19.43
2023-04-27T04:13:36.689Z,20.50
2023-04-27T04:16:06.568Z,18.33
2023-04-27T04:18:36.970Z,18.60
2023-04-27T04:21:06.389Z,19.67
2023-04-27T04:23:34.462Z,23.20
2023-04-27T04:26:03.069Z,21.63
2023-04-27T04:28:35.017Z,21.90
2023-04-27T04:31:05.665Z,22.80
2023-04-27T04:33:34.257Z,21.00
2023-04-27T04:36:06.670Z,18.73
2023-04-27T04:38:35.498Z,20.20
2023-04-27T04:41:03.662Z,19.50
2023-04-27T04:43:34.409Z,24.60
2023-04-27T04:46:06.471Z,21.17
2023-04-27T04:48:35.599Z,20.93
2023-04-27T04:51:06.048Z,19.27
2023-04-27T04:53:34.823Z,20.00
2023-04-27T04:56:10.782Z,17.93
2023-04-27T04:58:39.024Z,22.80
2023-04-27T05:01:07.512Z,17.97
2023-04-27T05:03:35.797Z,20.03
2023-04-27T05:06:03.924Z,20.77
2023-04-27T05:08:33.382Z,24.80
2023-04-27T05:11:01.438Z,19.87
2023-04-27T05:13:29.652Z,20.03
2023-04-27T05:15:57.711Z,20.73
2023-04-27T05:18:25.827Z,23.30
2023-04-27T05:20:53.831Z,20.07
2023-04-27T05:23:21.848Z,23.70
2023-04-27T05:25:51.728Z,23.60
2023-04-27T05:28:19.897Z,22.37
2023-04-27T05:30:47.995Z,22.57
2023-04-27T05:33:16.129Z,27.17
2023-04-27T05:35:44.195Z,20.93
2023-04-27T05:38:15.113Z,22.70
2023-04-27T05:40:43.150Z,25.00
2023-04-27T05:43:12.631Z,22.90
2023-04-27T05:45:41.817Z,24.73
2023-04-27T05:48:10.024Z,25.33
2023-04-27T05:50:38.092Z,23.27
2023-04-27T05:53:06.165Z,26.60
2023-04-27T05:55:34.188Z,21.60
2023-04-27T05:58:08.389Z,23.93
2023-04-27T06:00:38.851Z,24.30
2023-04-27T06:03:07.251Z,19.70
2023-04-27T06:05:35.632Z,23.80
2023-04-27T06:08:03.763Z,24.70
2023-04-27T06:10:31.847Z,20.37
2023-04-27T06:12:59.890Z,19.80
2023-04-27T06:15:27.986Z,24.13
2023-04-27T06:17:57.500Z,21.83
2023-04-27T06:20:25.897Z,19.50
2023-04-27T06:22:53.914Z,18.83
2023-04-27T06:25:22.825Z,22.00
2023-04-27T06:27:52.418Z,20.73
2023-04-27T06:30:20.520Z,20.23
2023-04-27T06:32:48.638Z,22.97
2023-04-27T06:35:18.375Z,20.63
2023-04-27T06:37:47.291Z,18.93
2023-04-27T06:40:15.486Z,18.80
2023-04-27T06:42:43.521Z,17.80
2023-04-27T06:45:12.436Z,19.70
2023-04-27T06:47:40.521Z,18.27
2023-04-27T06:50:09.667Z,14.27
2023-04-27T06:52:39.057Z,15.43
2023-04-27T06:55:08.013Z,16.23
2023-04-27T06:57:36.418Z,15.30
2023-04-27T07:00:05.118Z,15.17
2023-04-27T07:02:33.262Z,16.27
2023-04-27T07:05:01.420Z,16.00
2023-04-27T07:07:29.523Z,16.43
2023-04-27T07:09:59.133Z,16.27
2023-04-27T07:12:27.183Z,13.75
2023-04-27T07:14:55.750Z,15.52
2023-04-27T07:17:23.822Z,18.33
2023-04-27T07:19:51.875Z,13.93
2023-04-27T07:22:20.142Z,16.20
2023-04-27T07:24:48.420Z,13.85
2023-04-27T07:27:18.319Z,14.20
2023-04-27T07:29:46.392Z,14.02
2023-04-27T07:32:14.960Z,18.67
2023-04-27T07:34:52.701Z,15.13
2023-04-27T07:37:22.468Z,15.07
2023-04-27T07:39:52.004Z,15.25
2023-04-27T07:42:23.662Z,13.80
2023-04-27T07:44:52.372Z,15.50
2023-04-27T07:47:20.589Z,14.32
2023-04-27T07:49:48.651Z,13.48
2023-04-27T07:52:16.804Z,14.48
2023-04-27T07:54:44.897Z,16.95
2023-04-27T07:57:12.991Z,14.50
2023-04-27T07:59:42.392Z,10.07
2023-04-27T08:02:18.315Z,12.32
2023-04-27T08:04:48.792Z,15.90
2023-04-27T08:07:19.288Z,13.40
2023-04-27T08:09:47.943Z,10.25
2023-04-27T08:12:16.013Z,14.77
2023-04-27T08:14:45.421Z,10.20
2023-04-27T08:17:13.551Z,10.90
2023-04-27T08:19:42.238Z,12.93
2023-04-27T08:22:10.518Z,10.90
2023-04-27T08:24:38.583Z,11.82
2023-04-27T08:27:07.301Z,9.65
2023-04-27T08:29:35.444Z,10.98
2023-04-27T08:32:05.757Z,11.55
2023-04-27T08:34:33.786Z,12.40
2023-04-27T08:37:03.317Z,11.25
2023-04-27T08:39:31.321Z,12.27
2023-04-27T08:41:59.390Z,12.93
2023-04-27T08:44:27.505Z,13.43
2023-04-27T08:46:55.548Z,12.15
2023-04-27T08:49:24.934Z,10.60
2023-04-27T08:51:52.999Z,13.40
2023-04-27T08:54:21.894Z,14.05
2023-04-27T08:56:49.959Z,10.75
2023-04-27T08:59:18.556Z,11.95
2023-04-27T09:01:48.646Z,10.70
2023-04-27T09:04:17.899Z,14.55
2023-04-27T09:06:49.076Z,13.90
2023-04-27T09:09:24.508Z,12.65
2023-04-27T09:11:52.556Z,12.85
2023-04-27T09:14:21.881Z,12.13
2023-04-27T09:16:57.381Z,10.63
2023-04-27T09:19:26.528Z,12.38
2023-04-27T09:22:10.811Z,12.60
2023-04-27T09:24:39.295Z,10.90
2023-04-27T09:27:20.160Z,14.10
2023-04-27T09:29:48.237Z,13.05
2023-04-27T09:32:17.916Z,11.32
2023-04-27T09:34:46.469Z,9.02
2023-04-27T09:37:16.636Z,10.75
2023-04-27T09:39:46.164Z,10.90
2023-04-27T09:42:15.923Z,12.02
2023-04-27T09:44:44.026Z,10.00
2023-04-27T09:47:14.662Z,15.18
2023-04-27T09:49:42.914Z,12.02
2023-04-27T09:52:11.643Z,11.88
2023-04-27T09:54:42.207Z,11.63
2023-04-27T09:57:32.264Z,11.57
2023-04-27T10:00:11.154Z,14.27
2023-04-27T10:02:53.620Z,13.48
2023-04-27T10:05:44.953Z,12.73
2023-04-27T10:08:13.220Z,14.68
2023-04-27T10:10:49.575Z,15.43
2023-04-27T10:13:24.939Z,10.65
2023-04-27T10:15:53.191Z,14.68
2023-04-27T10:18:28.823Z,17.13
2023-04-27T10:20:57.018Z,17.70
2023-04-27T10:23:26.584Z,12.75
2023-04-27T10:25:57.325Z,16.13
2023-04-27T10:28:25.414Z,12.80
2023-04-27T10:30:53.617Z,11.82
2023-04-27T10:33:24.193Z,13.70
2023-04-27T10:35:56.958Z,15.23
2023-04-27T10:38:29.836Z,11.85
2023-04-27T10:41:01.901Z,14.70
2023-04-27T10:43:31.321Z,13.45
2023-04-27T10:46:09.304Z,13.73
2023-04-27T10:48:37.472Z,14.10
2023-04-27T10:51:06.487Z,16.02
2023-04-27T10:53:38.745Z,14.68
2023-04-27T10:56:08.687Z,13.45
2023-04-27T11:01:10.160Z,15.48
2023-04-27T11:03:39.066Z,12.23
2023-04-27T11:06:08.794Z,13.82
2023-04-27T11:08:45.503Z,14.50
2023-04-27T11:11:18.250Z,17.30
2023-04-27T11:13:49.422Z,13.65
2023-04-27T11:16:19.454Z,13.77
2023-04-27T11:18:47.578Z,13.02
2023-04-27T11:21:17.304Z,13.90
2023-04-27T11:23:45.549Z,16.48
2023-04-27T11:26:14.907Z,14.68
2023-04-27T11:28:45.776Z,13.65
2023-04-27T11:31:14.072Z,15.07
2023-04-27T11:33:49.425Z,13.27
2023-04-27T11:36:18.445Z,14.27
2023-04-27T11:38:47.613Z,15.63
2023-04-27T11:41:19.604Z,13.02
2023-04-27T11:43:49.970Z,11.60
2023-04-27T11:46:23.687Z,15.20
2023-04-27T11:48:51.941Z,11.70
2023-04-27T11:51:20.521Z,15.70
2023-04-27T11:53:51.329Z,13.55
2023-04-27T11:56:19.503Z,13.25
2023-04-27T11:58:49.168Z,14.55
2023-04-27T12:01:24.851Z,16.40
2023-04-27T12:04:03.475Z,11.50
2023-04-27T12:06:33.873Z,15.85
2023-04-27T12:09:02.292Z,13.18
2023-04-27T12:11:30.467Z,12.77
2023-04-27T12:13:59.930Z,14.38
2023-04-27T12:16:28.420Z,14.88
2023-04-27T12:18:56.533Z,12.80
2023-04-27T12:21:24.617Z,14.68
2023-04-27T12:23:53.002Z,12.30
2023-04-27T12:26:21.570Z,15.00
2023-04-27T12:28:49.648Z,12.75
2023-04-27T12:31:24.720Z,14.35
2023-04-27T12:33:54.170Z,14.30
2023-04-27T12:36:22.187Z,12.18
2023-04-27T12:38:50.261Z,13.48
2023-04-27T12:41:18.563Z,13.32
2023-04-27T12:43:46.850Z,16.75
2023-04-27T12:46:14.913Z,15.23
2023-04-27T12:48:45.100Z,13.18
2023-04-27T12:51:13.651Z,12.18
2023-04-27T12:53:41.974Z,12.80
2023-04-27T12:56:10.100Z,12.32
2023-04-27T12:58:38.127Z,14.90
2023-04-27T13:01:07.777Z,12.93
2023-04-27T13:03:36.617Z,11.98
2023-04-27T13:06:09.466Z,14.95
2023-04-27T13:08:39.120Z,12.55
2023-04-27T13:11:07.261Z,15.45
2023-04-27T13:13:35.871Z,13.32
2023-04-27T13:16:04.375Z,13.50
2023-04-27T13:18:34.924Z,13.45
2023-04-27T13:21:04.107Z,13.38
2023-04-27T13:23:33.704Z,17.20
2023-04-27T13:26:02.280Z,12.40
2023-04-27T13:28:30.331Z,12.65
2023-04-27T13:31:00.110Z,14.73
2023-04-27T13:33:28.456Z,12.80
2023-04-27T13:35:56.586Z,14.27
2023-04-27T13:38:24.744Z,16.67
2023-04-27T13:40:54.937Z,13.70
2023-04-27T13:43:23.020Z,13.57
2023-04-27T13:45:52.572Z,15.60
2023-04-27T13:48:20.710Z,14.85
2023-04-27T13:50:48.963Z,13.93
2023-04-27T13:53:17.347Z,14.32
2023-04-27T13:55:45.822Z,14.52
2023-04-27T13:58:15.226Z,14.48
2023-04-27T14:00:43.306Z,10.18
2023-04-27T14:03:12.026Z,13.75
2023-04-27T14:05:40.328Z,13.88
2023-04-27T14:08:08.319Z,12.50
2023-04-27T14:10:37.618Z,12.55
2023-04-27T14:13:06.055Z,14.05
2023-04-27T14:15:37.358Z,12.82
2023-04-27T14:18:07.721Z,12.82
2023-04-27T14:20:36.402Z,12.07
2023-04-27T14:23:05.267Z,11.50
2023-04-27T14:25:34.578Z,13.65
2023-04-27T14:28:03.957Z,12.25
2023-04-27T14:30:32.769Z,14.02
2023-04-27T14:33:02.374Z,14.07
2023-04-27T14:35:30.557Z,12.55
2023-04-27T14:38:02.340Z,13.48
2023-04-27T14:40:30.710Z,14.27
2023-04-27T14:42:59.452Z,13.02
2023-04-27T14:45:36.665Z,15.38
2023-04-27T14:48:13.459Z,13.35
2023-04-27T14:50:43.451Z,15.20
2023-04-27T14:53:11.658Z,15.15
2023-04-27T14:55:41.148Z,17.90
2023-04-27T14:58:09.309Z,14.02
2023-04-27T15:00:37.313Z,15.95
2023-04-27T15:03:05.721Z,15.63
2023-04-27T15:05:35.267Z,13.88
2023-04-27T15:08:03.796Z,13.35
2023-04-27T15:10:32.004Z,17.75
2023-04-27T15:12:59.996Z,12.27
2023-04-27T15:15:28.036Z,15.30
2023-04-27T15:17:56.115Z,15.35
2023-04-27T15:20:24.377Z,15.48
2023-04-27T15:22:53.828Z,14.73
2023-04-27T15:25:25.096Z,15.52
2023-04-27T15:27:53.112Z,15.48
2023-04-27T15:30:21.110Z,14.55
2023-04-27T15:32:49.558Z,14.95
2023-04-27T15:35:17.846Z,17.33
2023-04-27T15:37:45.952Z,14.55
2023-04-27T15:40:15.421Z,13.70
2023-04-27T15:42:43.434Z,14.77
2023-04-27T15:45:11.960Z,15.98
2023-04-27T15:47:40.056Z,15.35
2023-04-27T15:50:09.499Z,16.08
2023-04-27T15:52:37.730Z,15.27
2023-04-27T15:55:06.765Z,15.27
2023-04-27T15:57:36.234Z,14.48
2023-04-27T16:00:08.268Z,16.27
2023-04-27T16:02:38.786Z,14.75
2023-04-27T16:05:08.602Z,17.27
2023-04-27T16:07:39.484Z,13.82
2023-04-27T16:10:09.224Z,14.88
2023-04-27T16:12:38.896Z,17.55
2023-04-27T16:15:10.757Z,17.20
2023-04-27T16:17:40.060Z,14.27
2023-04-27T16:20:09.647Z,14.80
2023-04-27T16:22:38.283Z,15.95
2023-04-27T16:25:12.463Z,18.20
2023-04-27T16:27:42.584Z,16.45
2023-04-27T16:30:11.124Z,15.65
2023-04-27T16:32:39.233Z,15.32
2023-04-27T16:35:08.457Z,16.38
2023-04-27T16:37:36.566Z,16.85
2023-04-27T16:40:07.063Z,14.50
2023-04-27T16:42:35.538Z,13.45
2023-04-27T16:45:06.778Z,13.95
2023-04-27T16:47:36.652Z,14.85
2023-04-27T16:50:05.318Z,14.27
2023-04-27T16:52:33.483Z,18.10
2023-04-27T16:55:01.758Z,12.77
2023-04-27T16:57:29.990Z,12.73
2023-04-27T16:59:58.112Z,12.52
2023-04-27T17:02:27.903Z,17.45
2023-04-27T17:04:56.239Z,12.32
2023-04-27T17:07:25.534Z,13.00
2023-04-27T17:09:54.429Z,16.27
2023-04-27T17:12:22.716Z,12.73
2023-04-27T17:14:51.140Z,12.50
2023-04-27T17:17:20.048Z,15.25
2023-04-27T17:19:49.467Z,13.05
2023-04-27T17:22:17.582Z,12.13
2023-04-27T17:24:45.800Z,12.77
2023-04-27T17:27:13.871Z,13.35
2023-04-27T17:29:41.922Z,13.45
2023-04-27T17:32:10.444Z,13.00
2023-04-27T17:54:08.566Z,14.85
2023-04-27T17:56:36.677Z,11.93
2023-04-27T17:59:04.832Z,14.10
2023-04-27T18:01:33.242Z,15.50
2023-04-27T18:04:04.021Z,14.50
2023-04-27T18:06:33.901Z,16.63
2023-04-27T18:09:02.132Z,12.77
2023-04-27T18:11:31.586Z,16.90
2023-04-27T18:13:59.646Z,14.77
2023-04-27T18:16:27.837Z,13.93
2023-04-27T18:18:55.979Z,17.98
2023-04-27T18:21:26.718Z,15.10
2023-04-27T18:23:54.819Z,15.10
2023-04-27T18:26:23.071Z,16.40
2023-04-27T18:28:52.556Z,15.68
2023-04-27T18:31:21.277Z,14.52
2023-04-27T18:33:49.364Z,15.98
2023-04-27T18:36:17.439Z,14.98
2023-04-27T18:38:45.511Z,14.30
2023-04-27T18:41:13.552Z,19.05
2023-04-27T18:43:41.596Z,16.45
2023-04-27T18:46:11.015Z,17.85
2023-04-27T18:48:39.117Z,15.93
2023-04-27T18:51:07.225Z,15.68
2023-04-27T18:53:35.440Z,17.15
2023-04-27T18:56:03.510Z,16.58
2023-04-27T18:58:31.625Z,19.02
2023-04-27T19:00:59.711Z,18.55
2023-04-27T19:03:29.302Z,18.05
2023-04-27T19:05:58.751Z,17.75
2023-04-27T19:08:26.843Z,17.92
2023-04-27T19:10:54.901Z,19.70
2023-04-27T19:13:22.949Z,17.08
2023-04-27T19:15:51.541Z,16.33
2023-04-27T19:18:19.707Z,16.70
2023-04-27T19:20:49.931Z,16.80
2023-04-27T19:23:19.221Z,18.30
2023-04-27T19:25:48.325Z,17.67
2023-04-27T19:28:18.792Z,17.70
2023-04-27T19:30:47.696Z,16.77
2023-04-27T19:33:20.500Z,17.95
2023-04-27T19:35:52.364Z,15.25
2023-04-27T19:38:22.473Z,16.75
2023-04-27T19:40:50.577Z,19.52
2023-04-27T19:43:19.762Z,15.98
2023-04-27T19:45:49.168Z,15.73
2023-04-27T19:48:17.556Z,15.05
2023-04-27T19:50:45.816Z,17.40
2023-04-27T19:53:16.102Z,17.33
2023-04-27T19:55:44.318Z,16.85
2023-04-27T19:58:12.426Z,14.38
2023-04-27T20:00:40.622Z,18.73
2023-04-27T20:03:09.036Z,17.38
2023-04-27T20:05:38.543Z,18.17
2023-04-27T20:08:07.874Z,15.05
2023-04-27T20:10:37.761Z,17.23
2023-04-27T20:13:06.087Z,20.58
2023-04-27T20:18:38.094Z,15.20
2023-04-27T20:21:06.345Z,16.95
2023-04-27T20:23:34.586Z,16.58
2023-04-27T20:26:04.595Z,18.80
2023-04-27T20:28:32.639Z,15.95
2023-04-27T20:31:00.725Z,14.95
2023-04-27T20:33:28.822Z,17.02
2023-04-27T20:36:03.685Z,18.60
2023-04-27T20:38:38.376Z,13.82
2023-04-27T20:41:08.673Z,15.98
2023-04-27T20:43:39.140Z,17.85
2023-04-27T20:46:07.737Z,18.70
2023-04-27T20:48:36.245Z,13.00
2023-04-27T20:51:04.567Z,14.60
2023-04-27T20:53:32.589Z,14.45
2023-04-27T20:56:00.674Z,13.05
2023-04-27T20:58:30.083Z,13.18
2023-04-27T21:00:58.202Z,11.70
2023-04-27T21:03:26.409Z,15.27
2023-04-27T21:05:54.682Z,12.07
2023-04-27T21:08:22.724Z,14.13
2023-04-27T21:10:53.940Z,15.57
2023-04-27T21:13:22.056Z,14.13
2023-04-27T21:15:51.437Z,12.73
2023-04-27T21:18:29.603Z,13.90
2023-04-27T21:20:58.158Z,13.85
2023-04-27T21:23:26.311Z,12.30
2023-04-27T21:25:54.335Z,14.65
2023-04-27T21:28:22.414Z,13.40
2023-04-27T21:30:51.902Z,14.32
2023-04-27T21:33:20.120Z,14.40
2023-04-27T21:35:48.161Z,15.50
2023-04-27T21:38:16.209Z,13.00
2023-04-27T21:40:44.268Z,13.48
2023-04-27T21:43:12.337Z,13.13
2023-04-27T21:45:40.474Z,15.30
2023-04-27T21:48:10.397Z,14.95
2023-04-27T21:50:38.520Z,16.08
2023-04-27T21:53:06.603Z,13.05
2023-04-27T21:55:34.616Z,14.10
2023-04-27T21:58:02.663Z,15.70
2023-04-27T22:00:30.695Z,13.90
2023-04-27T22:02:58.950Z,15.43
2023-04-27T22:05:29.324Z,15.50
2023-04-27T22:07:58.154Z,15.55
2023-04-27T22:10:26.244Z,17.55
2023-04-27T22:12:54.789Z,14.48
2023-04-27T22:15:23.133Z,14.38
2023-04-27T22:17:51.290Z,13.35
2023-04-27T22:20:19.642Z,15.50
2023-04-27T22:22:49.112Z,15.18
2023-04-27T22:25:17.260Z,16.45
2023-04-27T22:27:45.755Z,14.82
2023-04-27T22:30:15.483Z,15.13
2023-04-27T22:32:43.620Z,15.82
2023-04-27T22:35:24.731Z,16.17
2023-04-27T22:37:55.870Z,14.27
2023-04-27T22:40:24.516Z,15.02
2023-04-27T22:42:52.752Z,17.42
2023-04-27T22:45:20.786Z,15.77
2023-04-27T22:47:49.517Z,16.85
2023-04-27T22:50:17.907Z,15.95
2023-04-27T22:52:46.078Z,18.30
2023-04-27T22:55:15.538Z,16.60
2023-04-27T22:57:44.844Z,14.88
2023-04-27T23:00:13.740Z,16.05
2023-04-27T23:02:42.693Z,16.10
2023-04-27T23:05:12.418Z,16.10
2023-04-27T23:07:42.828Z,16.15
2023-04-27T23:10:13.006Z,15.88
2023-04-27T23:12:42.454Z,16.60
2023-04-27T23:15:11.163Z,17.23
2023-04-27T23:17:39.264Z,18.30
2023-04-27T23:20:24.104Z,16.50
2023-04-27T23:22:55.177Z,17.83
2023-04-27T23:25:23.333Z,18.33
2023-04-27T23:27:53.146Z,18.38
2023-04-27T23:30:21.992Z,15.85
2023-04-27T23:32:50.270Z,17.65
2023-04-27T23:35:18.499Z,17.52
2023-04-27T23:37:46.521Z,18.50
2023-04-27T23:40:14.608Z,18.10
2023-04-27T23:42:42.626Z,18.60
2023-04-27T23:45:12.715Z,19.47
2023-04-27T23:47:40.964Z,18.37
2023-04-27T23:50:09.783Z,19.90
2023-04-27T23:52:37.867Z,17.45
2023-04-27T23:55:07.127Z,21.58
2023-04-27T23:57:35.190Z,17.00
